sensor_id;sensor_type;location;lat;lon;timestamp;P1;durP1;ratioP1;P2;durP2;ratioP2
84411;SDS011;74609;44.028;20.950;2024-01-10T00:00:55;20.77;;;13.13;;
84411;SDS011;74609;44.028;20.950;2024-01-10T00:03:21;21.63;;;12.98;;
84411;SDS011;74609;44.028;20.950;2024-01-10T00:05:50;26.58;;;14.73;;
84411;SDS011;74609;44.028;20.950;2024-01-10T00:08:16;21.73;;;13.57;;
84411;SDS011;74609;44.028;20.950;2024-01-10T00:10:42;20.83;;;13.32;;
84411;SDS011;74609;44.028;20.950;2024-01-10T00:13:08;22.48;;;13.93;;
84411;SDS011;74609;44.028;20.950;2024-01-10T00:15:34;24.17;;;15.02;;
84411;SDS011;74609;44.028;20.950;2024-01-10T00:18:01;26.83;;;16.02;;
84411;SDS011;74609;44.028;20.950;2024-01-10T00:20:27;24.38;;;16.13;;
84411;SDS011;74609;44.028;20.950;2024-01-10T00:22:53;28.33;;;16.95;;
84411;SDS011;74609;44.028;20.950;2024-01-10T00:25:19;24.13;;;14.23;;
84411;SDS011;74609;44.028;20.950;2024-01-10T00:27:45;24.30;;;14.52;;
84411;SDS011;74609;44.028;20.950;2024-01-10T00:30:11;25.42;;;15.40;;
84411;SDS011;74609;44.028;20.950;2024-01-10T00:32:37;29.55;;;16.10;;
84411;SDS011;74609;44.028;20.950;2024-01-10T00:35:03;26.05;;;15.65;;
84411;SDS011;74609;44.028;20.950;2024-01-10T00:37:29;24.63;;;14.75;;
84411;SDS011;74609;44.028;20.950;2024-01-10T00:39:55;24.30;;;15.18;;
84411;SDS011;74609;44.028;20.950;2024-01-10T00:42:21;22.35;;;14.52;;
84411;SDS011;74609;44.028;20.950;2024-01-10T00:44:48;23.83;;;14.60;;
84411;SDS011;74609;44.028;20.950;2024-01-10T00:47:14;25.38;;;14.57;;
84411;SDS011;74609;44.028;20.950;2024-01-10T00:49:40;21.70;;;13.88;;
84411;SDS011;74609;44.028;20.950;2024-01-10T00:52:06;24.67;;;15.15;;
84411;SDS011;74609;44.028;20.950;2024-01-10T00:54:32;27.50;;;15.60;;
84411;SDS011;74609;44.028;20.950;2024-01-10T00:56:58;24.40;;;15.75;;
84411;SDS011;74609;44.028;20.950;2024-01-10T00:59:24;22.95;;;15.15;;
84411;SDS011;74609;44.028;20.950;2024-01-10T01:01:50;23.33;;;15.10;;
84411;SDS011;74609;44.028;20.950;2024-01-10T01:04:17;25.90;;;14.52;;
84411;SDS011;74609;44.028;20.950;2024-01-10T01:06:43;23.35;;;13.43;;
84411;SDS011;74609;44.028;20.950;2024-01-10T01:09:09;22.50;;;13.55;;
84411;SDS011;74609;44.028;20.950;2024-01-10T01:11:35;24.30;;;15.48;;
84411;SDS011;74609;44.028;20.950;2024-01-10T01:14:01;23.67;;;13.25;;
84411;SDS011;74609;44.028;20.950;2024-01-10T01:16:27;23.90;;;14.38;;
84411;SDS011;74609;44.028;20.950;2024-01-10T01:18:53;23.85;;;14.93;;
84411;SDS011;74609;44.028;20.950;2024-01-10T01:21:19;22.30;;;14.95;;
84411;SDS011;74609;44.028;20.950;2024-01-10T01:23:46;27.20;;;15.40;;
84411;SDS011;74609;44.028;20.950;2024-01-10T01:26:12;28.52;;;17.45;;
84411;SDS011;74609;44.028;20.950;2024-01-10T01:28:39;24.83;;;14.48;;
84411;SDS011;74609;44.028;20.950;2024-01-10T01:31:05;20.58;;;14.05;;
84411;SDS011;74609;44.028;20.950;2024-01-10T01:33:31;21.30;;;13.10;;
84411;SDS011;74609;44.028;20.950;2024-01-10T01:35:57;20.27;;;12.65;;
84411;SDS011;74609;44.028;20.950;2024-01-10T01:38:24;26.88;;;15.35;;
84411;SDS011;74609;44.028;20.950;2024-01-10T01:40:50;25.50;;;16.10;;
84411;SDS011;74609;44.028;20.950;2024-01-10T01:43:19;29.13;;;16.77;;
84411;SDS011;74609;44.028;20.950;2024-01-10T01:45:46;23.80;;;15.38;;
84411;SDS011;74609;44.028;20.950;2024-01-10T01:48:13;24.13;;;14.50;;
84411;SDS011;74609;44.028;20.950;2024-01-10T01:50:39;23.40;;;14.93;;
84411;SDS011;74609;44.028;20.950;2024-01-10T01:53:06;26.10;;;14.85;;
84411;SDS011;74609;44.028;20.950;2024-01-10T01:55:32;21.35;;;13.38;;
84411;SDS011;74609;44.028;20.950;2024-01-10T01:57:58;24.38;;;14.52;;
84411;SDS011;74609;44.028;20.950;2024-01-10T02:00:24;30.27;;;18.65;;
84411;SDS011;74609;44.028;20.950;2024-01-10T02:02:51;30.85;;;18.55;;
84411;SDS011;74609;44.028;20.950;2024-01-10T02:05:17;36.33;;;21.67;;
84411;SDS011;74609;44.028;20.950;2024-01-10T02:07:46;32.22;;;20.33;;
84411;SDS011;74609;44.028;20.950;2024-01-10T02:10:13;28.33;;;17.30;;
84411;SDS011;74609;44.028;20.950;2024-01-10T02:12:39;34.05;;;19.60;;
84411;SDS011;74609;44.028;20.950;2024-01-10T02:15:05;35.03;;;19.35;;
84411;SDS011;74609;44.028;20.950;2024-01-10T02:17:31;32.42;;;18.65;;
84411;SDS011;74609;44.028;20.950;2024-01-10T02:20:13;29.50;;;17.63;;
84411;SDS011;74609;44.028;20.950;2024-01-10T02:22:40;32.35;;;17.52;;
84411;SDS011;74609;44.028;20.950;2024-01-10T02:25:07;29.60;;;19.02;;
84411;SDS011;74609;44.028;20.950;2024-01-10T02:27:37;26.10;;;16.42;;
84411;SDS011;74609;44.028;20.950;2024-01-10T02:30:03;29.17;;;18.05;;
84411;SDS011;74609;44.028;20.950;2024-01-10T02:32:30;24.52;;;15.07;;
84411;SDS011;74609;44.028;20.950;2024-01-10T02:34:56;23.80;;;14.95;;
84411;SDS011;74609;44.028;20.950;2024-01-10T02:37:22;25.20;;;14.50;;
84411;SDS011;74609;44.028;20.950;2024-01-10T02:39:48;24.13;;;14.55;;
84411;SDS011;74609;44.028;20.950;2024-01-10T02:42:15;23.92;;;14.63;;
84411;SDS011;74609;44.028;20.950;2024-01-10T02:44:41;23.30;;;14.45;;
84411;SDS011;74609;44.028;20.950;2024-01-10T02:47:07;21.67;;;12.85;;
84411;SDS011;74609;44.028;20.950;2024-01-10T02:49:33;22.05;;;13.13;;
84411;SDS011;74609;44.028;20.950;2024-01-10T02:51:59;22.08;;;13.02;;
84411;SDS011;74609;44.028;20.950;2024-01-10T02:54:26;18.65;;;12.07;;
84411;SDS011;74609;44.028;20.950;2024-01-10T02:56:52;22.75;;;13.10;;
84411;SDS011;74609;44.028;20.950;2024-01-10T02:59:18;21.27;;;11.98;;
84411;SDS011;74609;44.028;20.950;2024-01-10T03:01:44;20.73;;;12.45;;
84411;SDS011;74609;44.028;20.950;2024-01-10T03:04:10;20.60;;;12.00;;
84411;SDS011;74609;44.028;20.950;2024-01-10T03:06:36;19.30;;;11.35;;
84411;SDS011;74609;44.028;20.950;2024-01-10T03:09:02;17.70;;;11.23;;
84411;SDS011;74609;44.028;20.950;2024-01-10T03:11:28;17.77;;;10.80;;
84411;SDS011;74609;44.028;20.950;2024-01-10T03:14:29;18.73;;;11.35;;
84411;SDS011;74609;44.028;20.950;2024-01-10T03:16:48;17.33;;;10.65;;
84411;SDS011;74609;44.028;20.950;2024-01-10T03:19:14;17.80;;;10.90;;
84411;SDS011;74609;44.028;20.950;2024-01-10T03:21:40;16.85;;;10.35;;
84411;SDS011;74609;44.028;20.950;2024-01-10T03:24:06;16.50;;;10.02;;
84411;SDS011;74609;44.028;20.950;2024-01-10T03:26:33;19.77;;;11.23;;
84411;SDS011;74609;44.028;20.950;2024-01-10T03:28:59;17.38;;;10.90;;
84411;SDS011;74609;44.028;20.950;2024-01-10T03:31:26;16.63;;;11.98;;
84411;SDS011;74609;44.028;20.950;2024-01-10T03:33:53;19.67;;;11.77;;
84411;SDS011;74609;44.028;20.950;2024-01-10T03:36:19;19.10;;;10.88;;
84411;SDS011;74609;44.028;20.950;2024-01-10T03:38:45;20.95;;;12.68;;
84411;SDS011;74609;44.028;20.950;2024-01-10T03:41:14;18.58;;;11.40;;
84411;SDS011;74609;44.028;20.950;2024-01-10T03:43:41;21.38;;;10.80;;
84411;SDS011;74609;44.028;20.950;2024-01-10T03:46:07;19.38;;;10.60;;
84411;SDS011;74609;44.028;20.950;2024-01-10T03:48:33;17.85;;;11.25;;
84411;SDS011;74609;44.028;20.950;2024-01-10T03:50:59;17.58;;;10.35;;
84411;SDS011;74609;44.028;20.950;2024-01-10T03:53:26;19.13;;;10.13;;
84411;SDS011;74609;44.028;20.950;2024-01-10T03:55:52;15.10;;;9.70;;
84411;SDS011;74609;44.028;20.950;2024-01-10T03:58:18;14.70;;;9.75;;
84411;SDS011;74609;44.028;20.950;2024-01-10T04:00:44;15.55;;;9.82;;
84411;SDS011;74609;44.028;20.950;2024-01-10T04:03:10;13.95;;;8.85;;
84411;SDS011;74609;44.028;20.950;2024-01-10T04:05:36;18.08;;;10.80;;
84411;SDS011;74609;44.028;20.950;2024-01-10T04:08:02;16.75;;;10.27;;
84411;SDS011;74609;44.028;20.950;2024-01-10T04:10:29;18.20;;;10.68;;
84411;SDS011;74609;44.028;20.950;2024-01-10T04:12:55;18.70;;;11.20;;
84411;SDS011;74609;44.028;20.950;2024-01-10T04:15:21;15.10;;;9.25;;
84411;SDS011;74609;44.028;20.950;2024-01-10T04:17:47;16.40;;;10.50;;
84411;SDS011;74609;44.028;20.950;2024-01-10T04:20:13;18.48;;;11.95;;
84411;SDS011;74609;44.028;20.950;2024-01-10T04:22:39;18.00;;;11.05;;
84411;SDS011;74609;44.028;20.950;2024-01-10T04:25:06;19.40;;;10.88;;
84411;SDS011;74609;44.028;20.950;2024-01-10T04:27:32;15.93;;;9.85;;
84411;SDS011;74609;44.028;20.950;2024-01-10T04:29:59;17.20;;;10.60;;
84411;SDS011;74609;44.028;20.950;2024-01-10T04:32:28;18.13;;;10.50;;
84411;SDS011;74609;44.028;20.950;2024-01-10T04:34:54;17.95;;;11.10;;
84411;SDS011;74609;44.028;20.950;2024-01-10T04:37:20;16.48;;;9.70;;
84411;SDS011;74609;44.028;20.950;2024-01-10T04:39:46;14.10;;;9.02;;
84411;SDS011;74609;44.028;20.950;2024-01-10T04:42:12;17.05;;;9.30;;
84411;SDS011;74609;44.028;20.950;2024-01-10T04:44:39;15.73;;;9.38;;
84411;SDS011;74609;44.028;20.950;2024-01-10T04:47:05;17.95;;;10.30;;
84411;SDS011;74609;44.028;20.950;2024-01-10T04:49:31;14.15;;;8.65;;
84411;SDS011;74609;44.028;20.950;2024-01-10T04:51:57;14.55;;;8.98;;
84411;SDS011;74609;44.028;20.950;2024-01-10T04:54:24;15.68;;;8.93;;
84411;SDS011;74609;44.028;20.950;2024-01-10T04:56:50;13.57;;;8.68;;
84411;SDS011;74609;44.028;20.950;2024-01-10T04:59:16;12.93;;;8.52;;
84411;SDS011;74609;44.028;20.950;2024-01-10T05:01:42;15.13;;;8.10;;
84411;SDS011;74609;44.028;20.950;2024-01-10T05:04:08;12.77;;;8.90;;
84411;SDS011;74609;44.028;20.950;2024-01-10T05:06:34;16.10;;;9.32;;
84411;SDS011;74609;44.028;20.950;2024-01-10T05:09:01;17.15;;;8.93;;
84411;SDS011;74609;44.028;20.950;2024-01-10T05:11:27;19.13;;;9.05;;
84411;SDS011;74609;44.028;20.950;2024-01-10T05:13:53;11.23;;;7.28;;
84411;SDS011;74609;44.028;20.950;2024-01-10T05:16:20;16.17;;;8.60;;
84411;SDS011;74609;44.028;20.950;2024-01-10T05:18:46;14.65;;;8.82;;
84411;SDS011;74609;44.028;20.950;2024-01-10T05:21:12;15.02;;;7.90;;
84411;SDS011;74609;44.028;20.950;2024-01-10T05:23:38;12.52;;;7.50;;
84411;SDS011;74609;44.028;20.950;2024-01-10T05:26:05;11.70;;;6.90;;
84411;SDS011;74609;44.028;20.950;2024-01-10T05:28:31;12.52;;;7.10;;
84411;SDS011;74609;44.028;20.950;2024-01-10T05:30:58;12.23;;;7.35;;
84411;SDS011;74609;44.028;20.950;2024-01-10T05:33:24;13.00;;;8.07;;
84411;SDS011;74609;44.028;20.950;2024-01-10T05:35:50;16.45;;;8.50;;
84411;SDS011;74609;44.028;20.950;2024-01-10T05:38:16;12.85;;;7.50;;
84411;SDS011;74609;44.028;20.950;2024-01-10T05:40:42;13.95;;;7.38;;
84411;SDS011;74609;44.028;20.950;2024-01-10T05:43:08;10.82;;;7.03;;
84411;SDS011;74609;44.028;20.950;2024-01-10T05:45:35;15.48;;;6.78;;
84411;SDS011;74609;44.028;20.950;2024-01-10T05:48:02;15.40;;;7.70;;
84411;SDS011;74609;44.028;20.950;2024-01-10T05:50:28;13.43;;;8.02;;
84411;SDS011;74609;44.028;20.950;2024-01-10T05:52:54;15.73;;;7.88;;
84411;SDS011;74609;44.028;20.950;2024-01-10T05:55:21;13.27;;;7.75;;
84411;SDS011;74609;44.028;20.950;2024-01-10T05:57:48;14.15;;;7.20;;
84411;SDS011;74609;44.028;20.950;2024-01-10T06:00:14;14.07;;;7.88;;
84411;SDS011;74609;44.028;20.950;2024-01-10T06:02:41;14.57;;;7.22;;
84411;SDS011;74609;44.028;20.950;2024-01-10T06:05:08;18.15;;;8.00;;
84411;SDS011;74609;44.028;20.950;2024-01-10T06:07:35;16.83;;;8.40;;
84411;SDS011;74609;44.028;20.950;2024-01-10T06:10:01;15.57;;;8.73;;
84411;SDS011;74609;44.028;20.950;2024-01-10T06:12:27;18.88;;;9.05;;
84411;SDS011;74609;44.028;20.950;2024-01-10T06:14:54;17.55;;;7.97;;
84411;SDS011;74609;44.028;20.950;2024-01-10T06:17:20;16.88;;;8.32;;
84411;SDS011;74609;44.028;20.950;2024-01-10T06:19:46;15.63;;;8.30;;
84411;SDS011;74609;44.028;20.950;2024-01-10T06:22:12;12.18;;;7.43;;
84411;SDS011;74609;44.028;20.950;2024-01-10T06:24:38;18.55;;;9.40;;
84411;SDS011;74609;44.028;20.950;2024-01-10T06:27:06;18.33;;;8.40;;
84411;SDS011;74609;44.028;20.950;2024-01-10T06:29:33;15.13;;;8.30;;
84411;SDS011;74609;44.028;20.950;2024-01-10T06:31:59;21.30;;;11.68;;
84411;SDS011;74609;44.028;20.950;2024-01-10T06:34:26;31.88;;;15.65;;
84411;SDS011;74609;44.028;20.950;2024-01-10T06:36:52;33.88;;;17.30;;
84411;SDS011;74609;44.028;20.950;2024-01-10T06:39:18;30.80;;;15.75;;
84411;SDS011;74609;44.028;20.950;2024-01-10T06:41:47;24.75;;;12.20;;
84411;SDS011;74609;44.028;20.950;2024-01-10T06:44:14;23.25;;;10.57;;
84411;SDS011;74609;44.028;20.950;2024-01-10T06:46:42;21.55;;;11.50;;
84411;SDS011;74609;44.028;20.950;2024-01-10T06:49:09;24.15;;;11.82;;
84411;SDS011;74609;44.028;20.950;2024-01-10T06:51:35;23.30;;;11.10;;
84411;SDS011;74609;44.028;20.950;2024-01-10T06:54:01;24.52;;;11.57;;
84411;SDS011;74609;44.028;20.950;2024-01-10T06:56:33;28.27;;;12.88;;
84411;SDS011;74609;44.028;20.950;2024-01-10T06:59:00;26.50;;;14.43;;
84411;SDS011;74609;44.028;20.950;2024-01-10T07:01:26;26.08;;;14.07;;
84411;SDS011;74609;44.028;20.950;2024-01-10T07:03:53;32.38;;;17.73;;
84411;SDS011;74609;44.028;20.950;2024-01-10T07:06:22;32.30;;;18.83;;
84411;SDS011;74609;44.028;20.950;2024-01-10T07:08:49;22.25;;;12.10;;
84411;SDS011;74609;44.028;20.950;2024-01-10T07:11:16;21.30;;;10.80;;
84411;SDS011;74609;44.028;20.950;2024-01-10T07:13:42;21.48;;;12.02;;
84411;SDS011;74609;44.028;20.950;2024-01-10T07:16:09;23.70;;;12.43;;
84411;SDS011;74609;44.028;20.950;2024-01-10T07:18:35;23.17;;;13.30;;
84411;SDS011;74609;44.028;20.950;2024-01-10T07:21:01;30.02;;;15.90;;
84411;SDS011;74609;44.028;20.950;2024-01-10T07:23:28;26.52;;;15.15;;
84411;SDS011;74609;44.028;20.950;2024-01-10T07:25:54;28.45;;;16.35;;
84411;SDS011;74609;44.028;20.950;2024-01-10T07:28:20;23.65;;;12.40;;
84411;SDS011;74609;44.028;20.950;2024-01-10T07:30:47;35.80;;;18.23;;
84411;SDS011;74609;44.028;20.950;2024-01-10T07:33:13;23.20;;;13.82;;
84411;SDS011;74609;44.028;20.950;2024-01-10T07:35:40;38.75;;;20.00;;
84411;SDS011;74609;44.028;20.950;2024-01-10T07:38:06;34.33;;;17.98;;
84411;SDS011;74609;44.028;20.950;2024-01-10T07:40:33;26.60;;;14.35;;
84411;SDS011;74609;44.028;20.950;2024-01-10T07:42:59;28.38;;;14.45;;
84411;SDS011;74609;44.028;20.950;2024-01-10T07:45:25;39.45;;;21.90;;
84411;SDS011;74609;44.028;20.950;2024-01-10T07:47:51;41.10;;;18.95;;
84411;SDS011;74609;44.028;20.950;2024-01-10T07:50:18;20.20;;;13.57;;
84411;SDS011;74609;44.028;20.950;2024-01-10T07:52:44;28.13;;;15.15;;
84411;SDS011;74609;44.028;20.950;2024-01-10T07:55:14;24.70;;;13.07;;
84411;SDS011;74609;44.028;20.950;2024-01-10T07:57:41;26.92;;;14.43;;
84411;SDS011;74609;44.028;20.950;2024-01-10T08:00:10;37.33;;;19.35;;
84411;SDS011;74609;44.028;20.950;2024-01-10T08:02:37;31.90;;;15.60;;
84411;SDS011;74609;44.028;20.950;2024-01-10T08:05:04;29.83;;;16.20;;
84411;SDS011;74609;44.028;20.950;2024-01-10T08:07:30;29.90;;;15.40;;
84411;SDS011;74609;44.028;20.950;2024-01-10T08:09:58;36.55;;;19.25;;
84411;SDS011;74609;44.028;20.950;2024-01-10T08:12:25;40.35;;;22.23;;
84411;SDS011;74609;44.028;20.950;2024-01-10T08:14:51;37.53;;;21.27;;
84411;SDS011;74609;44.028;20.950;2024-01-10T08:17:17;39.58;;;23.17;;
84411;SDS011;74609;44.028;20.950;2024-01-10T08:19:44;39.53;;;24.75;;
84411;SDS011;74609;44.028;20.950;2024-01-10T08:22:10;35.40;;;22.95;;
84411;SDS011;74609;44.028;20.950;2024-01-10T08:24:38;40.15;;;25.80;;
84411;SDS011;74609;44.028;20.950;2024-01-10T08:27:04;45.80;;;28.00;;
84411;SDS011;74609;44.028;20.950;2024-01-10T08:29:30;44.88;;;30.42;;
84411;SDS011;74609;44.028;20.950;2024-01-10T08:31:56;22.33;;;16.02;;
84411;SDS011;74609;44.028;20.950;2024-01-10T08:34:23;37.22;;;23.10;;
84411;SDS011;74609;44.028;20.950;2024-01-10T08:36:49;47.17;;;31.42;;
84411;SDS011;74609;44.028;20.950;2024-01-10T08:39:18;33.38;;;22.20;;
84411;SDS011;74609;44.028;20.950;2024-01-10T08:41:47;32.65;;;23.73;;
84411;SDS011;74609;44.028;20.950;2024-01-10T08:44:13;39.95;;;31.92;;
84411;SDS011;74609;44.028;20.950;2024-01-10T08:46:39;38.35;;;26.20;;
84411;SDS011;74609;44.028;20.950;2024-01-10T08:49:05;25.40;;;15.30;;
84411;SDS011;74609;44.028;20.950;2024-01-10T08:51:31;23.42;;;13.75;;
84411;SDS011;74609;44.028;20.950;2024-01-10T08:53:59;18.85;;;13.98;;
84411;SDS011;74609;44.028;20.950;2024-01-10T08:56:25;22.13;;;14.25;;
84411;SDS011;74609;44.028;20.950;2024-01-10T08:58:52;19.05;;;14.13;;
84411;SDS011;74609;44.028;20.950;2024-01-10T09:01:18;19.00;;;12.38;;
84411;SDS011;74609;44.028;20.950;2024-01-10T09:03:45;19.95;;;12.65;;
84411;SDS011;74609;44.028;20.950;2024-01-10T09:06:11;19.35;;;12.75;;
84411;SDS011;74609;44.028;20.950;2024-01-10T09:08:37;18.08;;;12.13;;
84411;SDS011;74609;44.028;20.950;2024-01-10T09:11:04;17.05;;;12.15;;
84411;SDS011;74609;44.028;20.950;2024-01-10T09:13:31;16.92;;;11.85;;
84411;SDS011;74609;44.028;20.950;2024-01-10T09:15:57;16.95;;;11.45;;
84411;SDS011;74609;44.028;20.950;2024-01-10T09:18:23;21.77;;;12.07;;
84411;SDS011;74609;44.028;20.950;2024-01-10T09:20:49;18.63;;;11.82;;
84411;SDS011;74609;44.028;20.950;2024-01-10T09:23:15;21.98;;;14.85;;
84411;SDS011;74609;44.028;20.950;2024-01-10T09:25:42;23.92;;;15.18;;
84411;SDS011;74609;44.028;20.950;2024-01-10T09:28:08;25.70;;;14.70;;
84411;SDS011;74609;44.028;20.950;2024-01-10T09:30:34;24.60;;;16.35;;
84411;SDS011;74609;44.028;20.950;2024-01-10T09:33:00;25.60;;;18.55;;
84411;SDS011;74609;44.028;20.950;2024-01-10T09:35:26;22.65;;;15.98;;
84411;SDS011;74609;44.028;20.950;2024-01-10T09:37:52;25.23;;;19.20;;
84411;SDS011;74609;44.028;20.950;2024-01-10T09:40:19;27.70;;;20.23;;
84411;SDS011;74609;44.028;20.950;2024-01-10T09:42:51;27.90;;;20.75;;
84411;SDS011;74609;44.028;20.950;2024-01-10T09:45:17;29.08;;;21.48;;
84411;SDS011;74609;44.028;20.950;2024-01-10T09:47:49;26.88;;;21.08;;
84411;SDS011;74609;44.028;20.950;2024-01-10T09:50:18;22.92;;;17.80;;
84411;SDS011;74609;44.028;20.950;2024-01-10T09:52:51;25.05;;;18.13;;
84411;SDS011;74609;44.028;20.950;2024-01-10T09:55:22;24.95;;;18.02;;
84411;SDS011;74609;44.028;20.950;2024-01-10T10:00:15;22.10;;;15.95;;
84411;SDS011;74609;44.028;20.950;2024-01-10T10:02:41;22.52;;;15.82;;
84411;SDS011;74609;44.028;20.950;2024-01-10T10:05:08;24.15;;;15.60;;
84411;SDS011;74609;44.028;20.950;2024-01-10T10:07:50;22.13;;;16.15;;
84411;SDS011;74609;44.028;20.950;2024-01-10T10:10:18;22.30;;;15.05;;
84411;SDS011;74609;44.028;20.950;2024-01-10T10:12:45;22.35;;;15.27;;
84411;SDS011;74609;44.028;20.950;2024-01-10T10:15:13;19.92;;;14.68;;
84411;SDS011;74609;44.028;20.950;2024-01-10T10:17:39;18.55;;;13.82;;
84411;SDS011;74609;44.028;20.950;2024-01-10T10:20:22;24.23;;;14.32;;
84411;SDS011;74609;44.028;20.950;2024-01-10T10:23:01;16.08;;;12.77;;
84411;SDS011;74609;44.028;20.950;2024-01-10T10:27:57;19.77;;;13.15;;
84411;SDS011;74609;44.028;20.950;2024-01-10T10:30:23;19.85;;;12.85;;
84411;SDS011;74609;44.028;20.950;2024-01-10T10:32:49;18.42;;;12.20;;
84411;SDS011;74609;44.028;20.950;2024-01-10T10:35:16;20.77;;;12.82;;
84411;SDS011;74609;44.028;20.950;2024-01-10T10:37:45;19.90;;;12.50;;
84411;SDS011;74609;44.028;20.950;2024-01-10T10:40:11;20.35;;;12.35;;
84411;SDS011;74609;44.028;20.950;2024-01-10T10:42:38;22.08;;;12.23;;
84411;SDS011;74609;44.028;20.950;2024-01-10T10:45:06;16.77;;;11.50;;
84411;SDS011;74609;44.028;20.950;2024-01-10T10:47:36;20.27;;;11.57;;
84411;SDS011;74609;44.028;20.950;2024-01-10T10:50:03;20.33;;;12.48;;
84411;SDS011;74609;44.028;20.950;2024-01-10T10:52:31;16.33;;;11.70;;
84411;SDS011;74609;44.028;20.950;2024-01-10T10:54:57;16.73;;;11.48;;
84411;SDS011;74609;44.028;20.950;2024-01-10T10:57:27;17.95;;;11.32;;
84411;SDS011;74609;44.028;20.950;2024-01-10T10:59:53;21.23;;;11.70;;
84411;SDS011;74609;44.028;20.950;2024-01-10T11:02:22;22.20;;;11.20;;
84411;SDS011;74609;44.028;20.950;2024-01-10T11:04:48;16.45;;;10.75;;
84411;SDS011;74609;44.028;20.950;2024-01-10T11:07:15;22.70;;;15.68;;
84411;SDS011;74609;44.028;20.950;2024-01-10T11:09:42;23.48;;;16.15;;
84411;SDS011;74609;44.028;20.950;2024-01-10T11:22:36;32.10;;;16.95;;
84411;SDS011;74609;44.028;20.950;2024-01-10T11:25:06;20.05;;;12.32;;
84411;SDS011;74609;44.028;20.950;2024-01-10T11:27:32;20.17;;;12.50;;
84411;SDS011;74609;44.028;20.950;2024-01-10T11:29:59;20.15;;;11.98;;
84411;SDS011;74609;44.028;20.950;2024-01-10T11:32:26;23.85;;;11.70;;
84411;SDS011;74609;44.028;20.950;2024-01-10T11:37:19;16.48;;;11.75;;
84411;SDS011;74609;44.028;20.950;2024-01-10T11:39:45;23.42;;;12.15;;
84411;SDS011;74609;44.028;20.950;2024-01-10T11:42:11;19.80;;;11.60;;
84411;SDS011;74609;44.028;20.950;2024-01-10T11:44:47;16.55;;;11.52;;
84411;SDS011;74609;44.028;20.950;2024-01-10T11:47:14;16.98;;;10.95;;
84411;SDS011;74609;44.028;20.950;2024-01-10T11:49:41;17.90;;;11.40;;
84411;SDS011;74609;44.028;20.950;2024-01-10T11:52:19;24.13;;;11.38;;
84411;SDS011;74609;44.028;20.950;2024-01-10T11:54:47;17.45;;;10.75;;
84411;SDS011;74609;44.028;20.950;2024-01-10T11:57:22;17.90;;;11.65;;
84411;SDS011;74609;44.028;20.950;2024-01-10T11:59:56;18.25;;;11.07;;
84411;SDS011;74609;44.028;20.950;2024-01-10T12:02:25;15.73;;;11.38;;
84411;SDS011;74609;44.028;20.950;2024-01-10T12:04:52;13.85;;;9.00;;
84411;SDS011;74609;44.028;20.950;2024-01-10T12:07:19;21.23;;;10.45;;
84411;SDS011;74609;44.028;20.950;2024-01-10T12:09:45;14.60;;;10.43;;
84411;SDS011;74609;44.028;20.950;2024-01-10T12:12:12;20.67;;;10.55;;
84411;SDS011;74609;44.028;20.950;2024-01-10T12:14:39;20.30;;;10.90;;
84411;SDS011;74609;44.028;20.950;2024-01-10T12:17:05;21.25;;;10.95;;
84411;SDS011;74609;44.028;20.950;2024-01-10T12:19:33;18.83;;;9.60;;
84411;SDS011;74609;44.028;20.950;2024-01-10T12:22:00;17.75;;;9.60;;
84411;SDS011;74609;44.028;20.950;2024-01-10T12:24:27;16.83;;;10.25;;
84411;SDS011;74609;44.028;20.950;2024-01-10T12:26:56;16.98;;;9.75;;
84411;SDS011;74609;44.028;20.950;2024-01-10T12:29:22;13.30;;;9.95;;
84411;SDS011;74609;44.028;20.950;2024-01-10T12:31:50;15.40;;;9.98;;
84411;SDS011;74609;44.028;20.950;2024-01-10T12:34:16;15.60;;;10.80;;
84411;SDS011;74609;44.028;20.950;2024-01-10T12:36:43;14.70;;;9.90;;
84411;SDS011;74609;44.028;20.950;2024-01-10T12:39:09;14.80;;;10.20;;
84411;SDS011;74609;44.028;20.950;2024-01-10T12:41:35;15.27;;;10.25;;
84411;SDS011;74609;44.028;20.950;2024-01-10T12:44:02;74.18;;;27.52;;
84411;SDS011;74609;44.028;20.950;2024-01-10T12:46:29;17.30;;;8.75;;
84411;SDS011;74609;44.028;20.950;2024-01-10T12:48:59;14.38;;;8.02;;
84411;SDS011;74609;44.028;20.950;2024-01-10T12:51:26;17.38;;;9.40;;
84411;SDS011;74609;44.028;20.950;2024-01-10T12:53:54;19.48;;;9.38;;
84411;SDS011;74609;44.028;20.950;2024-01-10T12:56:21;17.17;;;8.68;;
84411;SDS011;74609;44.028;20.950;2024-01-10T12:58:47;24.23;;;11.60;;
84411;SDS011;74609;44.028;20.950;2024-01-10T13:01:13;17.38;;;9.05;;
84411;SDS011;74609;44.028;20.950;2024-01-10T13:03:40;18.75;;;9.68;;
84411;SDS011;74609;44.028;20.950;2024-01-10T13:06:06;16.95;;;8.90;;
84411;SDS011;74609;44.028;20.950;2024-01-10T13:08:32;16.58;;;9.77;;
84411;SDS011;74609;44.028;20.950;2024-01-10T13:10:58;14.45;;;8.40;;
84411;SDS011;74609;44.028;20.950;2024-01-10T13:13:33;13.57;;;8.43;;
84411;SDS011;74609;44.028;20.950;2024-01-10T13:15:59;13.63;;;7.70;;
84411;SDS011;74609;44.028;20.950;2024-01-10T13:18:25;12.73;;;7.90;;
84411;SDS011;74609;44.028;20.950;2024-01-10T13:20:53;12.75;;;8.07;;
84411;SDS011;74609;44.028;20.950;2024-01-10T13:23:20;15.10;;;8.68;;
84411;SDS011;74609;44.028;20.950;2024-01-10T13:25:49;14.73;;;8.82;;
84411;SDS011;74609;44.028;20.950;2024-01-10T13:28:15;18.38;;;8.55;;
84411;SDS011;74609;44.028;20.950;2024-01-10T13:30:42;18.95;;;9.68;;
84411;SDS011;74609;44.028;20.950;2024-01-10T13:33:08;18.27;;;7.97;;
84411;SDS011;74609;44.028;20.950;2024-01-10T13:35:35;11.50;;;7.38;;
84411;SDS011;74609;44.028;20.950;2024-01-10T13:38:01;14.85;;;7.00;;
84411;SDS011;74609;44.028;20.950;2024-01-10T13:40:28;13.75;;;7.10;;
84411;SDS011;74609;44.028;20.950;2024-01-10T13:42:54;15.13;;;7.60;;
84411;SDS011;74609;44.028;20.950;2024-01-10T13:45:20;11.43;;;6.63;;
84411;SDS011;74609;44.028;20.950;2024-01-10T13:47:46;13.23;;;7.28;;
84411;SDS011;74609;44.028;20.950;2024-01-10T13:50:15;16.45;;;8.52;;
84411;SDS011;74609;44.028;20.950;2024-01-10T13:52:41;15.38;;;8.50;;
84411;SDS011;74609;44.028;20.950;2024-01-10T13:55:08;13.90;;;6.85;;
84411;SDS011;74609;44.028;20.950;2024-01-10T13:57:34;10.90;;;6.68;;
84411;SDS011;74609;44.028;20.950;2024-01-10T14:00:01;11.82;;;7.38;;
84411;SDS011;74609;44.028;20.950;2024-01-10T14:02:28;15.40;;;7.43;;
84411;SDS011;74609;44.028;20.950;2024-01-10T14:04:54;18.05;;;7.80;;
84411;SDS011;74609;44.028;20.950;2024-01-10T14:07:22;18.83;;;7.00;;
84411;SDS011;74609;44.028;20.950;2024-01-10T14:09:49;13.93;;;6.50;;
84411;SDS011;74609;44.028;20.950;2024-01-10T14:12:15;11.73;;;7.22;;
84411;SDS011;74609;44.028;20.950;2024-01-10T14:14:42;10.30;;;6.57;;
84411;SDS011;74609;44.028;20.950;2024-01-10T14:17:09;15.20;;;6.15;;
84411;SDS011;74609;44.028;20.950;2024-01-10T14:19:35;9.65;;;6.43;;
84411;SDS011;74609;44.028;20.950;2024-01-10T14:22:01;13.88;;;6.38;;
84411;SDS011;74609;44.028;20.950;2024-01-10T14:24:27;14.05;;;6.65;;
84411;SDS011;74609;44.028;20.950;2024-01-10T14:26:53;13.05;;;7.15;;
84411;SDS011;74609;44.028;20.950;2024-01-10T14:29:19;12.32;;;5.50;;